Time;durP1;ratioP1;P1;durP2;ratioP2;P2;SDS_P1;SDS_P2;PMS_P1;PMS_P2;Temp;Humidity;BMP_temperature;BMP_pressure;BME280_temperature;BME280_humidity;BME280_pressure;Samples;Min_cycle;Max_cycle;Signal;HPM_P1;HPM_P2
2023/06/30 00:01:48;;;;;;;22.20;14.77;;;;;;;;;;5022503;28;20572;-64
2023/06/30 00:04:17;;;;;;;19.58;14.40;;;;;;;;;;5038442;28;20313;-65
2023/06/30 00:06:49;;;;;;;19.30;15.23;;;;;;;;;;5036978;28;20232;-62
2023/06/30 00:09:20;;;;;;;19.80;15.48;;;;;;;;;;5032642;28;20210;-63
2023/06/30 00:11:50;;;;;;;18.73;15.18;;;;;;;;;;5021238;28;20657;-63
2023/06/30 00:14:17;;;;;;;17.52;14.00;;;;;;;;;;5037440;28;20257;-63
2023/06/30 00:16:45;;;;;;;18.30;13.98;;;;;;;;;;5024605;28;20428;-62
2023/06/30 00:19:12;;;;;;;17.92;13.45;;;;;;;;;;5028392;28;20206;-63
2023/06/30 00:21:41;;;;;;;17.98;13.57;;;;;;;;;;5025174;28;20203;-64
2023/06/30 00:24:13;;;;;;;16.27;12.85;;;;;;;;;;5025197;28;20299;-64
2023/06/30 00:26:41;;;;;;;18.92;13.65;;;;;;;;;;5046640;28;20707;-62
2023/06/30 00:29:08;;;;;;;16.85;13.27;;;;;;;;;;5040273;28;20205;-62
2023/06/30 00:31:35;;;;;;;16.77;13.00;;;;;;;;;;5039642;28;20560;-62
2023/06/30 00:34:03;;;;;;;19.83;14.85;;;;;;;;;;5022190;28;20760;-62
2023/06/30 00:36:31;;;;;;;20.85;13.65;;;;;;;;;;5051499;28;20206;-62
2023/06/30 00:38:58;;;;;;;20.60;14.32;;;;;;;;;;5028011;28;20224;-62
2023/06/30 00:41:26;;;;;;;20.00;13.73;;;;;;;;;;5026055;28;20206;-62
2023/06/30 00:43:53;;;;;;;18.27;13.65;;;;;;;;;;5034204;28;20562;-62
2023/06/30 00:46:21;;;;;;;16.90;13.13;;;;;;;;;;5023645;28;20641;-62
2023/06/30 00:48:49;;;;;;;19.38;14.68;;;;;;;;;;5029893;28;20649;-64
2023/06/30 00:51:17;;;;;;;17.50;13.27;;;;;;;;;;5035418;28;20713;-63
2023/06/30 00:53:44;;;;;;;18.90;15.07;;;;;;;;;;5033986;28;20256;-64
2023/06/30 00:56:12;;;;;;;17.33;13.27;;;;;;;;;;5035730;28;20206;-63
2023/06/30 00:58:39;;;;;;;19.80;14.48;;;;;;;;;;5019219;28;20209;-64
2023/06/30 01:01:10;;;;;;;18.98;13.68;;;;;;;;;;5030726;28;20214;-64
2023/06/30 01:03:46;;;;;;;18.63;13.65;;;;;;;;;;5036058;28;20223;-63
2023/06/30 01:06:37;;;;;;;18.27;14.15;;;;;;;;;;5021208;28;20228;-62
2023/06/30 01:09:09;;;;;;;18.63;14.63;;;;;;;;;;5036140;28;20218;-63
2023/06/30 01:11:36;;;;;;;17.45;14.45;;;;;;;;;;5036452;28;20387;-63
2023/06/30 01:14:06;;;;;;;19.35;15.20;;;;;;;;;;5040910;28;20272;-63
2023/06/30 01:16:34;;;;;;;22.30;15.90;;;;;;;;;;5026577;28;20199;-62
2023/06/30 01:19:04;;;;;;;20.02;15.55;;;;;;;;;;5036743;28;20576;-63
2023/06/30 01:21:32;;;;;;;21.73;16.00;;;;;;;;;;5038999;28;20210;-62
2023/06/30 01:24:05;;;;;;;21.83;16.48;;;;;;;;;;5017251;28;20219;-62
2023/06/30 01:26:34;;;;;;;21.42;16.55;;;;;;;;;;5030392;28;20218;-62
2023/06/30 01:29:03;;;;;;;20.10;16.02;;;;;;;;;;5021437;28;20202;-62
2023/06/30 01:31:31;;;;;;;23.10;16.35;;;;;;;;;;5017734;28;20624;-62
2023/06/30 01:34:02;;;;;;;20.55;16.45;;;;;;;;;;5035095;28;20219;-63
2023/06/30 01:36:30;;;;;;;20.10;16.33;;;;;;;;;;5023191;28;20631;-62
2023/06/30 01:38:57;;;;;;;22.98;16.85;;;;;;;;;;5038130;28;20237;-62
2023/06/30 01:41:25;;;;;;;23.40;16.95;;;;;;;;;;5041571;28;20209;-62
2023/06/30 01:43:52;;;;;;;21.70;16.25;;;;;;;;;;5032979;28;20246;-63
2023/06/30 01:46:20;;;;;;;20.88;16.55;;;;;;;;;;5035164;28;20335;-62
2023/06/30 01:48:47;;;;;;;19.77;15.40;;;;;;;;;;5036346;28;20291;-62
2023/06/30 01:51:15;;;;;;;21.65;16.35;;;;;;;;;;5033307;28;20230;-62
2023/06/30 01:53:42;;;;;;;20.67;15.95;;;;;;;;;;5009304;28;20276;-62
2023/06/30 01:56:10;;;;;;;20.30;16.33;;;;;;;;;;5035587;28;20257;-62
2023/06/30 01:58:37;;;;;;;20.25;16.17;;;;;;;;;;5033339;28;20268;-62
2023/06/30 02:01:05;;;;;;;21.48;15.93;;;;;;;;;;5036986;28;20301;-63
2023/06/30 02:03:32;;;;;;;21.02;16.35;;;;;;;;;;5019986;28;20233;-62
2023/06/30 02:06:00;;;;;;;20.13;16.30;;;;;;;;;;5022288;28;20619;-62
2023/06/30 02:08:28;;;;;;;20.65;17.30;;;;;;;;;;5018719;28;20747;-63
2023/06/30 02:10:55;;;;;;;21.83;16.90;;;;;;;;;;5035910;28;20214;-62
2023/06/30 02:13:23;;;;;;;21.45;16.35;;;;;;;;;;5019823;28;20426;-63
2023/06/30 02:15:50;;;;;;;20.20;16.17;;;;;;;;;;5030931;28;20199;-62
2023/06/30 02:18:18;;;;;;;22.30;17.05;;;;;;;;;;5035784;28;20301;-62
2023/06/30 02:20:47;;;;;;;21.63;16.55;;;;;;;;;;5020743;28;20324;-62
2023/06/30 02:23:14;;;;;;;21.17;16.83;;;;;;;;;;5032717;28;20209;-63
2023/06/30 02:25:41;;;;;;;22.10;15.98;;;;;;;;;;5037177;28;20216;-63
2023/06/30 02:28:09;;;;;;;20.42;15.93;;;;;;;;;;5035277;28;20234;-62
2023/06/30 02:30:36;;;;;;;23.00;16.38;;;;;;;;;;5019471;28;20715;-62
2023/06/30 02:33:05;;;;;;;21.33;16.70;;;;;;;;;;5015867;28;20213;-62
2023/06/30 02:35:32;;;;;;;25.02;17.25;;;;;;;;;;5043558;28;20208;-63
2023/06/30 02:37:59;;;;;;;22.05;17.05;;;;;;;;;;5003831;28;20206;-61
2023/06/30 02:40:29;;;;;;;20.35;16.70;;;;;;;;;;5030398;28;20214;-63
2023/06/30 02:42:57;;;;;;;23.35;16.25;;;;;;;;;;5033330;28;20225;-63
2023/06/30 02:45:24;;;;;;;19.50;15.93;;;;;;;;;;5020127;28;20891;-63
2023/06/30 02:47:52;;;;;;;18.55;15.45;;;;;;;;;;5033830;28;20287;-63
2023/06/30 02:50:23;;;;;;;20.92;16.25;;;;;;;;;;5024789;28;20210;-62
2023/06/30 02:52:50;;;;;;;20.67;16.45;;;;;;;;;;5039220;28;20218;-62
2023/06/30 02:55:18;;;;;;;22.88;16.67;;;;;;;;;;5034262;28;20257;-63
2023/06/30 02:57:45;;;;;;;20.30;15.45;;;;;;;;;;5023639;28;20206;-62
2023/06/30 03:00:14;;;;;;;22.17;16.33;;;;;;;;;;5035712;28;20266;-62
2023/06/30 03:02:41;;;;;;;20.23;16.02;;;;;;;;;;5031850;28;20202;-62
2023/06/30 03:05:09;;;;;;;23.30;17.20;;;;;;;;;;5034545;28;20240;-63
2023/06/30 03:07:36;;;;;;;21.40;16.27;;;;;;;;;;5037573;28;20902;-62
2023/06/30 03:10:04;;;;;;;21.75;16.02;;;;;;;;;;5017793;28;20208;-62
2023/06/30 03:12:32;;;;;;;19.52;15.98;;;;;;;;;;5033466;28;20214;-62
2023/06/30 03:14:59;;;;;;;20.15;15.32;;;;;;;;;;5036571;28;20259;-63
2023/06/30 03:17:26;;;;;;;20.15;16.13;;;;;;;;;;5034796;28;20821;-63
2023/06/30 03:19:54;;;;;;;21.08;16.20;;;;;;;;;;5025489;28;20225;-62
2023/06/30 03:22:22;;;;;;;20.58;15.93;;;;;;;;;;5023952;28;20207;-62
2023/06/30 03:24:49;;;;;;;21.75;16.25;;;;;;;;;;5027013;28;20238;-62
2023/06/30 03:27:17;;;;;;;21.20;16.30;;;;;;;;;;5036462;28;20302;-62
2023/06/30 03:29:44;;;;;;;22.05;16.77;;;;;;;;;;5034097;28;20615;-62
2023/06/30 03:32:11;;;;;;;21.73;15.27;;;;;;;;;;5021252;28;20245;-62
2023/06/30 03:34:40;;;;;;;20.90;15.57;;;;;;;;;;5037346;28;20630;-63
2023/06/30 03:37:07;;;;;;;20.38;15.43;;;;;;;;;;5036565;28;20195;-62
2023/06/30 03:39:34;;;;;;;21.17;15.60;;;;;;;;;;5022607;28;20616;-62
2023/06/30 03:42:02;;;;;;;19.05;14.57;;;;;;;;;;5021809;28;20271;-62
2023/06/30 03:44:29;;;;;;;21.50;15.82;;;;;;;;;;5039139;28;20226;-62
2023/06/30 03:46:56;;;;;;;19.02;14.73;;;;;;;;;;5031276;28;20663;-64
2023/06/30 03:49:24;;;;;;;17.85;14.38;;;;;;;;;;5038039;28;20634;-64
2023/06/30 03:51:51;;;;;;;17.38;14.52;;;;;;;;;;5039294;28;20210;-65
2023/06/30 03:54:19;;;;;;;19.17;14.85;;;;;;;;;;5041254;28;20814;-65
2023/06/30 03:56:47;;;;;;;20.98;16.02;;;;;;;;;;5039787;28;20194;-64
2023/06/30 03:59:14;;;;;;;19.65;15.05;;;;;;;;;;5040250;28;20206;-64
2023/06/30 04:01:41;;;;;;;21.05;14.88;;;;;;;;;;5030807;28;20214;-63
2023/06/30 04:04:08;;;;;;;22.75;15.98;;;;;;;;;;5043170;28;20238;-63
2023/06/30 04:06:36;;;;;;;19.63;15.40;;;;;;;;;;5047195;28;20214;-63
2023/06/30 04:09:04;;;;;;;18.55;14.75;;;;;;;;;;5041532;28;20222;-65
2023/06/30 04:11:31;;;;;;;19.60;14.43;;;;;;;;;;5027072;28;20198;-62
2023/06/30 04:14:01;;;;;;;18.17;13.75;;;;;;;;;;5037624;28;20881;-64
2023/06/30 04:16:29;;;;;;;18.70;15.23;;;;;;;;;;5039274;28;20210;-62
2023/06/30 04:18:57;;;;;;;17.92;14.07;;;;;;;;;;5039258;28;20210;-63
2023/06/30 04:21:24;;;;;;;19.02;13.82;;;;;;;;;;5035510;28;20214;-65
2023/06/30 04:23:52;;;;;;;18.50;13.70;;;;;;;;;;5037111;28;20222;-63
2023/06/30 04:26:19;;;;;;;17.08;12.75;;;;;;;;;;5022387;28;20214;-63
2023/06/30 04:28:48;;;;;;;17.63;13.27;;;;;;;;;;5042694;28;20228;-63
2023/06/30 04:31:15;;;;;;;15.73;11.38;;;;;;;;;;5035406;28;20209;-64
2023/06/30 04:33:42;;;;;;;15.13;11.13;;;;;;;;;;5020821;28;20226;-61
2023/06/30 04:36:10;;;;;;;14.45;11.40;;;;;;;;;;5034734;28;20233;-63
2023/06/30 04:38:37;;;;;;;14.43;11.43;;;;;;;;;;5017371;28;20224;-64
2023/06/30 04:41:05;;;;;;;14.70;10.73;;;;;;;;;;5037599;28;20301;-66
2023/06/30 04:43:33;;;;;;;13.52;10.00;;;;;;;;;;5034467;28;20231;-64
2023/06/30 04:46:00;;;;;;;13.68;10.73;;;;;;;;;;5020469;28;20256;-63
2023/06/30 04:48:27;;;;;;;14.55;11.07;;;;;;;;;;5019626;28;20236;-63
2023/06/30 04:50:55;;;;;;;13.40;10.68;;;;;;;;;;5033778;28;20204;-64
2023/06/30 04:53:22;;;;;;;14.07;10.43;;;;;;;;;;5017993;28;20283;-63
2023/06/30 04:55:49;;;;;;;16.27;11.52;;;;;;;;;;5035890;28;20217;-66
2023/06/30 04:58:18;;;;;;;13.45;10.80;;;;;;;;;;5020502;28;20638;-66
2023/06/30 05:00:45;;;;;;;16.52;11.45;;;;;;;;;;5036362;28;20243;-63
2023/06/30 05:03:12;;;;;;;15.82;10.48;;;;;;;;;;5021747;28;20218;-66
2023/06/30 05:05:40;;;;;;;16.23;11.70;;;;;;;;;;5034085;28;20203;-66
2023/06/30 05:08:07;;;;;;;13.90;10.77;;;;;;;;;;5027120;28;20275;-66
2023/06/30 05:10:35;;;;;;;15.80;11.50;;;;;;;;;;5036027;28;20199;-63
2023/06/30 05:13:02;;;;;;;15.27;11.23;;;;;;;;;;5025494;28;20207;-64
2023/06/30 05:15:30;;;;;;;14.50;10.73;;;;;;;;;;5038270;28;20509;-67
2023/06/30 05:17:58;;;;;;;15.73;11.98;;;;;;;;;;5034254;28;20611;-62
2023/06/30 05:20:25;;;;;;;13.55;10.98;;;;;;;;;;5040956;28;20237;-63
2023/06/30 05:22:52;;;;;;;16.20;12.43;;;;;;;;;;5025752;28;20210;-63
2023/06/30 05:25:20;;;;;;;14.25;11.18;;;;;;;;;;5038038;28;20222;-64
2023/06/30 05:27:47;;;;;;;13.82;11.63;;;;;;;;;;5025514;28;20255;-65
2023/06/30 05:30:14;;;;;;;15.30;11.48;;;;;;;;;;5043379;28;20620;-63
2023/06/30 05:32:42;;;;;;;17.27;12.15;;;;;;;;;;5049778;28;20677;-64
2023/06/30 05:35:09;;;;;;;14.63;11.55;;;;;;;;;;5016042;28;20222;-62
2023/06/30 05:37:36;;;;;;;16.50;11.52;;;;;;;;;;5022777;28;20206;-63
2023/06/30 05:40:04;;;;;;;17.52;12.55;;;;;;;;;;5028114;28;20209;-63
2023/06/30 05:42:31;;;;;;;14.32;11.55;;;;;;;;;;5022634;28;20206;-62
2023/06/30 05:44:59;;;;;;;16.55;11.95;;;;;;;;;;5045857;28;20701;-62
2023/06/30 05:47:26;;;;;;;18.05;12.40;;;;;;;;;;5044418;28;20208;-66
2023/06/30 05:49:53;;;;;;;20.98;14.23;;;;;;;;;;5024058;28;20709;-65
2023/06/30 05:52:24;;;;;;;15.88;13.05;;;;;;;;;;5042430;28;20660;-64
2023/06/30 05:54:52;;;;;;;16.17;13.27;;;;;;;;;;5030736;28;20226;-65
2023/06/30 05:57:19;;;;;;;16.08;13.27;;;;;;;;;;5042668;28;20198;-65
2023/06/30 05:59:46;;;;;;;18.20;14.10;;;;;;;;;;5033067;28;20214;-62
2023/06/30 06:02:14;;;;;;;17.48;14.63;;;;;;;;;;5043201;28;20636;-63
2023/06/30 06:04:41;;;;;;;18.33;14.90;;;;;;;;;;5027722;28;20238;-63
2023/06/30 06:07:09;;;;;;;17.92;14.20;;;;;;;;;;5024388;28;20199;-62
2023/06/30 06:09:36;;;;;;;18.67;14.35;;;;;;;;;;5038427;28;20321;-62
2023/06/30 06:12:03;;;;;;;17.25;13.95;;;;;;;;;;5038179;28;20202;-63
2023/06/30 06:14:31;;;;;;;15.43;13.70;;;;;;;;;;5041951;28;20229;-65
2023/06/30 06:16:58;;;;;;;16.80;12.88;;;;;;;;;;5038855;28;20611;-62
2023/06/30 06:19:26;;;;;;;17.50;13.48;;;;;;;;;;5021491;28;20215;-64
2023/06/30 06:21:53;;;;;;;18.63;14.23;;;;;;;;;;5039276;28;20331;-61
2023/06/30 06:24:21;;;;;;;18.85;13.60;;;;;;;;;;5017714;28;20591;-65
2023/06/30 06:26:48;;;;;;;16.20;13.25;;;;;;;;;;5019485;28;20301;-63
2023/06/30 06:29:21;;;;;;;18.80;13.60;;;;;;;;;;5043360;28;20227;-64
2023/06/30 06:31:52;;;;;;;18.08;12.40;;;;;;;;;;5039123;28;20251;-62
2023/06/30 06:34:20;;;;;;;15.45;12.05;;;;;;;;;;5037346;28;20218;-62
2023/06/30 06:36:47;;;;;;;18.05;12.20;;;;;;;;;;5027121;28;20216;-67
2023/06/30 06:39:15;;;;;;;18.23;12.98;;;;;;;;;;5042853;28;20240;-64
2023/06/30 06:41:44;;;;;;;19.75;13.65;;;;;;;;;;5039254;28;20236;-67
2023/06/30 06:44:12;;;;;;;18.42;13.23;;;;;;;;;;5021662;28;20775;-61
2023/06/30 06:46:40;;;;;;;19.13;12.70;;;;;;;;;;5017883;28;20222;-68
2023/06/30 06:49:07;;;;;;;21.85;12.80;;;;;;;;;;5026163;28;20230;-68
2023/06/30 06:51:34;;;;;;;18.08;12.27;;;;;;;;;;5019598;28;20194;-62
2023/06/30 06:54:02;;;;;;;16.63;12.95;;;;;;;;;;5024747;28;20237;-65
2023/06/30 06:56:29;;;;;;;18.35;11.63;;;;;;;;;;5033777;28;20203;-66
2023/06/30 06:59:01;;;;;;;14.95;10.23;;;;;;;;;;5033220;28;20297;-63
2023/06/30 07:01:33;;;;;;;14.70;9.90;;;;;;;;;;5027747;28;20202;-64
2023/06/30 07:04:00;;;;;;;13.32;9.68;;;;;;;;;;5029120;28;20716;-63
2023/06/30 07:06:28;;;;;;;14.20;10.27;;;;;;;;;;5030177;28;20292;-66
2023/06/30 07:08:55;;;;;;;16.83;11.18;;;;;;;;;;5029555;28;20271;-62
2023/06/30 07:11:22;;;;;;;14.60;9.93;;;;;;;;;;5033904;28;20202;-63
2023/06/30 07:13:50;;;;;;;14.38;10.43;;;;;;;;;;5014276;28;20700;-64
2023/06/30 07:16:17;;;;;;;14.52;10.60;;;;;;;;;;5030589;28;20199;-61
2023/06/30 07:18:45;;;;;;;15.68;11.05;;;;;;;;;;5021157;28;20293;-63
2023/06/30 07:21:13;;;;;;;16.70;12.68;;;;;;;;;;5019748;28;20207;-62
2023/06/30 07:23:40;;;;;;;14.88;11.38;;;;;;;;;;5022865;28;20230;-61
2023/06/30 07:26:08;;;;;;;16.60;11.95;;;;;;;;;;5020848;28;20218;-64
2023/06/30 07:28:36;;;;;;;18.33;12.40;;;;;;;;;;5029895;28;20233;-63
2023/06/30 07:31:03;;;;;;;18.63;12.60;;;;;;;;;;5032626;28;20199;-62
2023/06/30 07:33:30;;;;;;;16.50;12.20;;;;;;;;;;5037344;28;20654;-61
2023/06/30 07:35:57;;;;;;;19.48;13.05;;;;;;;;;;5037606;28;20615;-62
2023/06/30 07:38:25;;;;;;;17.95;13.10;;;;;;;;;;5025779;28;20210;-62
2023/06/30 07:40:52;;;;;;;17.85;13.23;;;;;;;;;;5038207;28;20202;-63
2023/06/30 07:43:23;;;;;;;17.15;13.00;;;;;;;;;;5037706;28;20325;-63
2023/06/30 07:45:51;;;;;;;23.25;14.05;;;;;;;;;;5040626;28;20325;-64
2023/06/30 07:48:18;;;;;;;18.98;14.02;;;;;;;;;;5035670;28;20253;-62
2023/06/30 07:50:46;;;;;;;17.45;13.38;;;;;;;;;;5039881;28;20201;-65
2023/06/30 07:53:34;;;;;;;17.27;12.77;;;;;;;;;;5034309;28;20313;-63
2023/06/30 07:56:02;;;;;;;17.65;13.07;;;;;;;;;;5029016;28;20199;-62
2023/06/30 07:58:29;;;;;;;18.45;12.82;;;;;;;;;;5038019;28;20206;-60
2023/06/30 08:00:56;;;;;;;19.20;13.90;;;;;;;;;;5038405;28;20537;-62
2023/06/30 08:03:23;;;;;;;18.05;13.68;;;;;;;;;;5037325;28;20267;-62
2023/06/30 08:05:51;;;;;;;17.52;12.50;;;;;;;;;;5036907;28;20671;-62
2023/06/30 08:08:19;;;;;;;18.20;13.25;;;;;;;;;;5040698;28;20203;-62
2023/06/30 08:10:47;;;;;;;16.77;12.77;;;;;;;;;;5041786;28;20222;-62
2023/06/30 08:13:15;;;;;;;16.80;12.60;;;;;;;;;;5039869;28;20637;-62
2023/06/30 08:15:43;;;;;;;17.30;13.00;;;;;;;;;;5030105;28;20210;-62
2023/06/30 08:18:13;;;;;;;17.25;12.20;;;;;;;;;;5042247;28;20700;-62
2023/06/30 08:20:58;;;;;;;14.88;11.05;;;;;;;;;;5043093;28;20355;-62
2023/06/30 08:23:26;;;;;;;15.57;11.05;;;;;;;;;;5039816;28;20218;-61
2023/06/30 08:25:55;;;;;;;15.07;11.60;;;;;;;;;;5039210;28;20214;-61
2023/06/30 08:28:22;;;;;;;14.13;10.85;;;;;;;;;;5037094;28;20214;-62
2023/06/30 08:30:51;;;;;;;13.77;10.63;;;;;;;;;;5041720;28;20245;-63
2023/06/30 08:33:18;;;;;;;12.50;10.20;;;;;;;;;;5043403;28;20210;-63
2023/06/30 08:36:06;;;;;;;15.05;10.93;;;;;;;;;;5040687;28;20297;-65
2023/06/30 08:38:33;;;;;;;14.65;11.20;;;;;;;;;;5036552;28;20247;-63
2023/06/30 08:41:02;;;;;;;15.27;11.60;;;;;;;;;;5037859;28;20207;-64
2023/06/30 08:43:31;;;;;;;18.90;11.75;;;;;;;;;;5037043;28;20304;-62
2023/06/30 08:46:01;;;;;;;14.65;11.27;;;;;;;;;;5039160;28;20693;-65
2023/06/30 08:48:30;;;;;;;16.23;11.68;;;;;;;;;;5032054;28;20303;-65
2023/06/30 08:50:59;;;;;;;16.88;12.05;;;;;;;;;;5035674;28;20272;-62
2023/06/30 08:53:28;;;;;;;16.15;12.38;;;;;;;;;;5033249;28;20341;-62
2023/06/30 08:55:58;;;;;;;16.77;13.18;;;;;;;;;;5034407;28;20227;-62
2023/06/30 08:58:28;;;;;;;18.20;14.10;;;;;;;;;;5041604;28;20691;-62
2023/06/30 09:00:55;;;;;;;16.13;13.57;;;;;;;;;;5037986;28;20206;-63
2023/06/30 09:03:23;;;;;;;18.95;15.63;;;;;;;;;;5028659;28;20258;-60
2023/06/30 09:05:53;;;;;;;19.20;15.80;;;;;;;;;;5035672;28;20231;-66
2023/06/30 09:08:23;;;;;;;19.42;16.17;;;;;;;;;;5037857;28;20264;-64
2023/06/30 09:10:51;;;;;;;21.95;17.65;;;;;;;;;;5027590;28;20245;-63
2023/06/30 09:13:18;;;;;;;21.20;16.83;;;;;;;;;;5037981;28;20210;-64
2023/06/30 09:15:46;;;;;;;19.58;16.60;;;;;;;;;;5039455;28;20287;-67
2023/06/30 09:18:14;;;;;;;21.23;17.33;;;;;;;;;;5026812;28;20203;-61
2023/06/30 09:20:41;;;;;;;19.92;16.58;;;;;;;;;;5036744;28;20348;-62
2023/06/30 09:23:09;;;;;;;19.75;16.45;;;;;;;;;;5028587;28;20214;-65
2023/06/30 09:25:36;;;;;;;20.63;17.38;;;;;;;;;;5032247;28;20222;-62
2023/06/30 09:28:08;;;;;;;20.80;17.40;;;;;;;;;;5042980;28;20234;-62
2023/06/30 09:30:36;;;;;;;20.55;17.42;;;;;;;;;;5037335;28;20714;-61
2023/06/30 09:33:03;;;;;;;17.92;15.48;;;;;;;;;;5030460;28;20223;-62
2023/06/30 09:35:41;;;;;;;18.30;16.33;;;;;;;;;;5031883;28;20571;-64
2023/06/30 09:38:12;;;;;;;18.38;15.90;;;;;;;;;;5039177;28;20827;-61
2023/06/30 09:40:43;;;;;;;18.63;15.73;;;;;;;;;;5032576;28;20206;-62
2023/06/30 09:43:15;;;;;;;16.92;15.02;;;;;;;;;;5035220;28;20206;-63
2023/06/30 09:45:47;;;;;;;17.42;14.80;;;;;;;;;;5034388;28;20758;-64
2023/06/30 09:48:15;;;;;;;16.85;14.48;;;;;;;;;;5038947;28;20311;-62
2023/06/30 09:50:43;;;;;;;16.35;14.40;;;;;;;;;;5011354;28;20217;-62
2023/06/30 09:53:10;;;;;;;15.15;13.55;;;;;;;;;;5018661;28;20215;-62
2023/06/30 09:55:50;;;;;;;15.85;13.50;;;;;;;;;;5041939;28;20255;-62
2023/06/30 09:58:18;;;;;;;15.98;13.43;;;;;;;;;;5045124;28;20198;-63
2023/06/30 10:00:46;;;;;;;16.27;12.73;;;;;;;;;;5047389;28;20558;-62
2023/06/30 10:03:16;;;;;;;15.15;12.85;;;;;;;;;;5044241;28;20202;-62
2023/06/30 10:05:46;;;;;;;15.93;13.57;;;;;;;;;;5028448;28;20201;-62
2023/06/30 10:08:14;;;;;;;15.02;12.27;;;;;;;;;;5031709;28;20281;-62
2023/06/30 10:10:42;;;;;;;15.00;12.73;;;;;;;;;;5023731;28;20229;-62
2023/06/30 10:13:14;;;;;;;15.35;12.57;;;;;;;;;;5004692;28;20211;-62
2023/06/30 10:15:42;;;;;;;15.65;13.15;;;;;;;;;;5024412;28;20287;-62
2023/06/30 10:18:11;;;;;;;15.38;12.07;;;;;;;;;;5025376;28;22150;-62
2023/06/30 10:20:38;;;;;;;15.88;11.52;;;;;;;;;;5021459;28;20294;-62
2023/06/30 10:23:15;;;;;;;13.30;11.10;;;;;;;;;;5027680;28;20241;-61
2023/06/30 10:25:43;;;;;;;13.80;11.88;;;;;;;;;;5021464;28;20313;-63
2023/06/30 10:28:11;;;;;;;14.95;11.38;;;;;;;;;;5026794;28;20293;-61
2023/06/30 10:30:39;;;;;;;15.45;11.88;;;;;;;;;;5027691;28;20230;-62
2023/06/30 10:33:06;;;;;;;13.98;11.60;;;;;;;;;;5018337;28;20203;-63
2023/06/30 10:35:34;;;;;;;15.60;12.20;;;;;;;;;;5030444;28;20720;-62
2023/06/30 10:38:02;;;;;;;13.15;10.50;;;;;;;;;;5030006;28;20261;-62
2023/06/30 10:40:30;;;;;;;13.98;10.85;;;;;;;;;;5031497;28;20221;-62
2023/06/30 10:42:58;;;;;;;12.05;10.35;;;;;;;;;;5037082;28;20301;-62
2023/06/30 10:45:29;;;;;;;13.13;10.60;;;;;;;;;;5025132;28;20229;-62
2023/06/30 10:47:57;;;;;;;14.23;10.32;;;;;;;;;;5038520;28;20732;-62
2023/06/30 10:50:24;;;;;;;12.07;9.38;;;;;;;;;;5044010;28;20252;-62
2023/06/30 10:52:53;;;;;;;13.18;9.52;;;;;;;;;;5035740;28;20198;-63
2023/06/30 10:55:21;;;;;;;12.55;9.63;;;;;;;;;;5038378;28;20304;-63
2023/06/30 10:57:52;;;;;;;13.75;11.02;;;;;;;;;;5038723;28;20206;-62
2023/06/30 11:00:21;;;;;;;13.70;10.82;;;;;;;;;;5017106;28;20197;-64
2023/06/30 11:02:57;;;;;;;13.73;10.77;;;;;;;;;;5033313;28;20214;-62
2023/06/30 11:05:31;;;;;;;13.57;11.13;;;;;;;;;;5032540;28;20748;-61
2023/06/30 11:08:09;;;;;;;12.00;10.07;;;;;;;;;;5027359;28;20221;-63
2023/06/30 11:10:37;;;;;;;12.27;9.77;;;;;;;;;;5028479;28;20532;-62
2023/06/30 11:13:11;;;;;;;13.13;11.00;;;;;;;;;;5030413;28;20224;-63
2023/06/30 11:15:44;;;;;;;13.15;10.45;;;;;;;;;;5035499;28;20540;-63
2023/06/30 11:18:19;;;;;;;13.10;10.93;;;;;;;;;;5031797;28;20241;-63
2023/06/30 11:20:59;;;;;;;13.18;11.02;;;;;;;;;;5031678;28;20252;-63
2023/06/30 11:23:28;;;;;;;10.65;9.55;;;;;;;;;;5016691;28;20238;-62
2023/06/30 11:25:59;;;;;;;11.02;9.23;;;;;;;;;;5038245;28;20210;-61
2023/06/30 11:28:28;;;;;;;12.18;9.98;;;;;;;;;;5036072;28;20209;-65
2023/06/30 11:31:00;;;;;;;10.55;9.20;;;;;;;;;;5036363;28;20308;-63
2023/06/30 11:33:27;;;;;;;12.90;9.93;;;;;;;;;;5035162;28;20223;-62
2023/06/30 11:35:59;;;;;;;12.55;9.45;;;;;;;;;;5038215;28;20656;-62
2023/06/30 11:38:26;;;;;;;10.68;9.55;;;;;;;;;;5020802;28;20198;-62
2023/06/30 11:41:00;;;;;;;12.73;8.63;;;;;;;;;;5035417;28;20202;-62
2023/06/30 11:43:32;;;;;;;10.40;9.23;;;;;;;;;;5035274;28;20285;-62
2023/06/30 11:46:00;;;;;;;10.20;9.13;;;;;;;;;;5033394;28;20206;-64
2023/06/30 11:48:52;;;;;;;12.05;9.52;;;;;;;;;;5030639;28;20222;-63
2023/06/30 11:51:19;;;;;;;10.60;9.50;;;;;;;;;;5031959;28;20588;-64
2023/06/30 11:53:47;;;;;;;12.65;9.00;;;;;;;;;;5040175;28;20666;-62
2023/06/30 11:56:18;;;;;;;11.63;8.90;;;;;;;;;;5038283;28;20602;-62
2023/06/30 11:58:53;;;;;;;11.98;9.35;;;;;;;;;;5036730;28;20211;-63
2023/06/30 12:01:21;;;;;;;11.52;9.50;;;;;;;;;;5025843;28;20210;-65
2023/06/30 12:04:14;;;;;;;10.73;9.23;;;;;;;;;;5035428;28;20679;-60
2023/06/30 12:06:45;;;;;;;12.77;9.85;;;;;;;;;;5007246;28;20317;-63
2023/06/30 12:09:13;;;;;;;13.25;9.77;;;;;;;;;;5034830;28;20210;-61
2023/06/30 12:11:45;;;;;;;14.73;10.15;;;;;;;;;;5031668;28;21023;-64
2023/06/30 12:14:15;;;;;;;13.02;10.20;;;;;;;;;;5043218;28;20638;-62
2023/06/30 12:16:44;;;;;;;11.57;9.82;;;;;;;;;;5044525;28;20264;-65
2023/06/30 12:19:15;;;;;;;12.75;10.35;;;;;;;;;;5033994;28;20202;-63
2023/06/30 12:21:52;;;;;;;11.75;10.02;;;;;;;;;;5026533;28;20217;-65
2023/06/30 12:24:19;;;;;;;11.43;10.20;;;;;;;;;;5036402;28;21934;-64
2023/06/30 12:26:48;;;;;;;13.82;10.90;;;;;;;;;;5034811;28;20260;-62
2023/06/30 12:29:16;;;;;;;12.48;10.70;;;;;;;;;;5040081;28;20202;-65
2023/06/30 12:31:46;;;;;;;13.25;11.27;;;;;;;;;;5039708;28;20230;-64
2023/06/30 12:34:31;;;;;;;13.65;11.20;;;;;;;;;;5042977;28;20218;-62
2023/06/30 12:36:59;;;;;;;12.50;10.77;;;;;;;;;;5039072;28;20203;-61
2023/06/30 12:39:26;;;;;;;12.45;10.35;;;;;;;;;;5039723;28;20207;-63
2023/06/30 12:41:54;;;;;;;14.32;10.95;;;;;;;;;;5024754;28;20228;-63
2023/06/30 12:44:22;;;;;;;12.88;11.40;;;;;;;;;;5041382;28;20289;-63
2023/06/30 12:47:03;;;;;;;16.05;12.38;;;;;;;;;;5040272;28;20242;-63
2023/06/30 12:49:31;;;;;;;15.55;13.23;;;;;;;;;;5024757;28;20202;-63
2023/06/30 12:51:58;;;;;;;16.77;13.60;;;;;;;;;;5022127;28;20254;-63
2023/06/30 12:54:29;;;;;;;16.65;13.30;;;;;;;;;;5042142;28;20326;-62
2023/06/30 12:56:57;;;;;;;14.45;12.50;;;;;;;;;;5038356;28;20203;-63
2023/06/30 12:59:24;;;;;;;17.25;12.55;;;;;;;;;;5044156;28;20209;-63
2023/06/30 13:01:52;;;;;;;14.98;12.85;;;;;;;;;;5038052;28;20252;-62
2023/06/30 13:04:20;;;;;;;16.73;12.90;;;;;;;;;;5025535;28;20228;-63
2023/06/30 13:06:48;;;;;;;18.20;14.80;;;;;;;;;;5037422;28;20710;-62
2023/06/30 13:09:15;;;;;;;20.77;16.80;;;;;;;;;;5044944;28;20595;-64
2023/06/30 13:11:43;;;;;;;19.92;17.38;;;;;;;;;;5024870;28;20319;-63
2023/06/30 13:14:10;;;;;;;18.65;15.60;;;;;;;;;;5027727;28;20218;-63
2023/06/30 13:16:38;;;;;;;24.05;16.05;;;;;;;;;;5023171;28;20661;-63
2023/06/30 13:19:05;;;;;;;18.50;14.43;;;;;;;;;;5015167;28;20202;-63
2023/06/30 13:21:33;;;;;;;16.08;14.32;;;;;;;;;;5041985;28;20206;-63
2023/06/30 13:24:00;;;;;;;18.80;14.45;;;;;;;;;;5021183;28;21242;-62
2023/06/30 13:26:28;;;;;;;16.50;13.52;;;;;;;;;;5018211;28;20210;-62
2023/06/30 13:28:55;;;;;;;17.73;14.82;;;;;;;;;;5030128;28;20881;-62
2023/06/30 13:31:23;;;;;;;20.17;15.23;;;;;;;;;;5037134;28;20327;-64
2023/06/30 13:33:50;;;;;;;18.42;15.23;;;;;;;;;;5022784;28;20224;-64
2023/06/30 13:36:17;;;;;;;22.02;15.93;;;;;;;;;;5039899;28;20230;-64
2023/06/30 13:38:46;;;;;;;19.25;15.57;;;;;;;;;;5038176;28;20198;-64
2023/06/30 13:41:13;;;;;;;20.33;17.05;;;;;;;;;;5015391;28;20633;-62
2023/06/30 13:43:41;;;;;;;23.45;16.95;;;;;;;;;;5039762;28;20229;-63
2023/06/30 13:46:08;;;;;;;20.50;17.40;;;;;;;;;;5034851;28;20205;-63
2023/06/30 13:48:38;;;;;;;21.38;17.17;;;;;;;;;;5029628;28;20206;-62
2023/06/30 13:51:06;;;;;;;20.85;17.30;;;;;;;;;;5030791;28;20236;-63
2023/06/30 13:53:35;;;;;;;23.20;17.83;;;;;;;;;;5031853;28;20224;-62
2023/06/30 13:56:03;;;;;;;24.35;17.73;;;;;;;;;;5029070;28;20211;-63
2023/06/30 13:58:31;;;;;;;22.60;18.23;;;;;;;;;;5033115;28;20206;-63
2023/06/30 14:00:58;;;;;;;22.40;18.80;;;;;;;;;;5031381;28;20293;-62
2023/06/30 14:03:25;;;;;;;22.52;18.13;;;;;;;;;;5032513;28;20612;-63
2023/06/30 14:05:53;;;;;;;22.70;18.95;;;;;;;;;;5035019;28;20260;-64
2023/06/30 14:08:20;;;;;;;23.67;18.42;;;;;;;;;;5033789;28;20297;-62
2023/06/30 14:10:48;;;;;;;23.42;18.27;;;;;;;;;;5044839;28;20237;-63
2023/06/30 14:13:15;;;;;;;24.65;18.95;;;;;;;;;;5032733;28;21068;-63
2023/06/30 14:15:42;;;;;;;22.92;19.02;;;;;;;;;;5032219;28;20277;-63
2023/06/30 14:18:10;;;;;;;23.83;20.00;;;;;;;;;;5014394;28;20382;-63
2023/06/30 14:20:38;;;;;;;23.30;19.00;;;;;;;;;;5027717;28;20210;-63
2023/06/30 14:23:05;;;;;;;24.40;18.95;;;;;;;;;;5031548;28;20422;-62
2023/06/30 14:25:32;;;;;;;25.42;19.95;;;;;;;;;;5039240;28;21149;-62
2023/06/30 14:28:01;;;;;;;25.85;19.13;;;;;;;;;;5040369;28;20469;-62